Yellowstone Regional Airport
KCOD : now visible

Airfield :











YOU CAN JOIN US ON...

 
LOGIN :

Register | Disclaimer

   EN    FR    IT 

 









Legend :    VFR   Marginal VFR   IFR   Intensive IFR   Very Intensive IFR
Visi :
Ceiling :
>= 8 km
>= 3000ft
5 to 8 km
1000 to 3000 ft
1500m to 5 km
500 to 1000 ft
800 to 1500m
200 to 500 ft
< 800m
< 200 ft
Symbols :   Thunderstorms  Fog  Heavy snow  Heavy precipitations  Wind > 20 kt







- Airport Elevation : 5102 ft


KCOD - Yellowstone Regional

CURRENT METAR :
  • 212056Z AUTO 00000KT 10SM OVC060 11/06 A3007 RMK AO2 RAE41 SLP182 P0002 60002 T01110056 58006

EXPIRED METARs :
  • 211956Z AUTO VRB04KT 10SM -RA FEW040 SCT048 OVC065 11/06 A3008 RMK AO2 RAB12 SLP184 P0000 T01110061
  • 211856Z AUTO 03005KT 10SM OVC060 11/06 A3009 RMK AO2 SLP188 T01110056

TAF KCOD
Valid from the 21 at 18:00 until the 22 at 18:00 UTC


211732Z 2118/2218 VRB06KT P6SM SCT040 BKN070
FM211900 29010G15KT P6SM -SHRA SCT030 BKN050
FM220000 27010KT P6SM VCSH SCT030 BKN050
FM220500 22007KT P6SM SCT050 AMD LTD TO CLD VIS AND WIND
No reported NOTAMs for that airfield.



MET'MAP, your aeronautical weather chart ! - Copyright ORBIFLY December 2007 - Disclaimer

ORBIFLY MET'MAP TEAM :

Programming & Development : Alexandra Zaïnal
Concept & Development : Baudouin d'Aumeries
Co-Development & Prog : Marc-Olivier Méhu
Technical & hardware support : Manuel Goepfert

Contact : metmap@orbifly.com




SOURCES & CREDITS :

   NOAA       Earth
Advisory